Princeville, IL (61559)

11:11 PM CDT on August 29, 2016 (GMT -0500)
4.5 miles South of | | Change Station

Elev 684 ft 40.87 °N, 89.77 °W | Updated 2 days ago

Thunderstorm
Thunderstorm
72 °F
Feels Like 72 °F
N
2
Wind Variable Wind from East
Gusts mph

Today
High -- | Low -- °F
--% Chance of Precip.
Yesterday
High -- | Low -- °F
Precip. -- in
Pressure 30.14 in
Visibility 10.0 miles
Clouds Clear
Dew Point 71 °F
Humidity 97%
Rainfall in
Snow Depth Not available.
6:23 AM 7:35 PM
Waning Crescent, 5% visible
METAR KPIA 300354Z 08005KT 10SM CLR 24/23 A3016 RMK AO2 SLP206 T02390233
Pressure 30.14 in
Visibility 10.0 miles
Clouds Clear
Dew Point 71 °F
Humidity 97%
Rainfall in
Snow Depth Not available.
6:23 AM 7:35 PM
Waning Crescent, 5% visible
METAR KPIA 300354Z 08005KT 10SM CLR 24/23 A3016 RMK AO2 SLP206 T02390233

10-Day Weather Forecast

Almanac

Astronomy

Aug. 29, 2016 Rise Set
Actual Time
Civil Twilight
Nautical Twilight
Astronomical Twilight
Moon
Length of Visible Light
Length of Day
Tomorrow will be .
, % of the Moon is Illuminated

Today's Extremes

State Highs State Lows

Community

WunderPhotos

Upload Photos

1,935,785 photos uploaded!

WunderBlog® & News

Nearby

Air Quality

  Air Quality AQ Index Pollutant
Not available.

Snow Depth

Station Depth Elevation

Earthquake Activity

City Distance Mag. Time & Date
Minimum magnitude displayed is 2.5.

Coastal Water Temperatures

Place Temperature

Stations

Nearby Weather Stations

Station Location Temp. Windchill Dew Point Humidity Wind Precip. Elev Updated Type
                   

Watches & Warnings

There are currently no watches in effect.